createdAt,value
2022-11-17T00:00:29.416Z,15.18
2022-11-17T00:03:32.936Z,15.90
2022-11-17T00:06:36.529Z,15.23
2022-11-17T00:09:40.129Z,16.20
2022-11-17T00:13:02.228Z,17.10
2022-11-17T00:16:05.832Z,18.02
2022-11-17T00:19:27.735Z,16.65
2022-11-17T00:22:32.507Z,15.23
2022-11-17T00:25:35.792Z,15.80
2022-11-17T00:28:40.472Z,16.33
2022-11-17T00:32:02.546Z,15.98
2022-11-17T00:35:06.670Z,16.17
2022-11-17T00:38:15.948Z,15.73
2022-11-17T00:41:19.275Z,17.10
2022-11-17T00:44:22.550Z,16.08
2022-11-17T00:47:25.873Z,15.95
2022-11-17T00:50:29.246Z,15.70
2022-11-17T00:53:32.833Z,14.17
2022-11-17T00:56:36.509Z,14.33
2022-11-17T00:59:39.855Z,14.45
2022-11-17T01:02:43.292Z,14.35
2022-11-17T01:05:46.794Z,13.43
2022-11-17T01:08:50.086Z,13.87
2022-11-17T01:11:54.061Z,12.70
2022-11-17T01:14:57.417Z,12.98
2022-11-17T01:18:00.861Z,13.32
2022-11-17T01:21:13.054Z,11.13
2022-11-17T01:24:17.381Z,14.10
2022-11-17T01:27:20.789Z,13.07
2022-11-17T01:30:24.175Z,12.77
2022-11-17T01:33:27.828Z,13.18
2022-11-17T01:37:00.735Z,13.13
2022-11-17T01:40:04.695Z,13.33
2022-11-17T01:43:11.840Z,13.00
2022-11-17T01:46:24.044Z,13.10
2022-11-17T01:49:29.213Z,13.48
2022-11-17T01:52:34.802Z,14.13
2022-11-17T01:55:49.105Z,12.20
2022-11-17T01:58:59.697Z,13.07
2022-11-17T02:02:03.067Z,12.20
2022-11-17T02:05:12.249Z,13.80
2022-11-17T02:08:16.228Z,14.20
2022-11-17T02:11:21.811Z,14.60
2022-11-17T02:14:25.172Z,14.13
2022-11-17T02:17:36.727Z,13.48
2022-11-17T02:20:55.161Z,12.75
2022-11-17T02:24:17.351Z,12.18
2022-11-17T02:27:29.575Z,12.97
2022-11-17T02:30:52.852Z,12.53
2022-11-17T02:34:04.776Z,13.93
2022-11-17T02:37:24.989Z,12.50
2022-11-17T02:40:44.831Z,13.02
2022-11-17T02:44:25.622Z,12.87
2022-11-17T02:47:32.930Z,13.40
2022-11-17T02:50:37.220Z,13.32
2022-11-17T02:53:41.462Z,12.50
2022-11-17T02:56:45.177Z,12.20
2022-11-17T02:59:49.927Z,12.00
2022-11-17T03:03:27.483Z,12.60
2022-11-17T03:06:48.963Z,11.57
2022-11-17T03:10:27.190Z,12.63
2022-11-17T03:13:40.616Z,12.75
2022-11-17T03:17:00.647Z,12.60
2022-11-17T03:20:23.463Z,12.30
2022-11-17T03:23:39.478Z,12.18
2022-11-17T03:26:51.993Z,12.05
2022-11-17T03:30:02.889Z,12.73
2022-11-17T03:33:12.376Z,12.77
2022-11-17T03:36:29.916Z,13.30
2022-11-17T03:39:41.062Z,12.63
2022-11-17T03:42:52.647Z,13.30
2022-11-17T03:46:02.846Z,13.77
2022-11-17T03:49:22.748Z,13.20
2022-11-17T03:52:29.642Z,13.43
2022-11-17T03:56:10.963Z,14.00
2022-11-17T03:59:35.598Z,13.30
2022-11-17T04:02:42.037Z,12.80
2022-11-17T04:05:45.512Z,12.80
2022-11-17T04:08:48.858Z,12.53
2022-11-17T04:12:10.477Z,13.18
2022-11-17T04:15:32.688Z,13.18
2022-11-17T04:18:36.105Z,13.20
2022-11-17T04:21:39.586Z,13.37
2022-11-17T04:24:42.845Z,12.20
2022-11-17T04:28:04.502Z,12.77
2022-11-17T04:31:22.775Z,13.98
2022-11-17T04:34:26.093Z,12.07
2022-11-17T04:37:29.390Z,12.93
2022-11-17T04:40:53.041Z,13.70
2022-11-17T04:43:57.016Z,14.80
2022-11-17T04:47:03.118Z,14.30
2022-11-17T04:50:07.140Z,14.07
2022-11-17T04:53:10.440Z,14.80
2022-11-17T04:56:14.209Z,14.40
2022-11-17T04:59:17.746Z,14.60
2022-11-17T05:02:21.059Z,14.63
2022-11-17T05:05:24.390Z,13.57
2022-11-17T05:08:27.722Z,14.27
2022-11-17T05:11:50.406Z,13.47
2022-11-17T05:14:53.755Z,13.60
2022-11-17T05:17:57.020Z,13.77
2022-11-17T05:21:07.439Z,13.90
2022-11-17T05:24:10.899Z,13.90
2022-11-17T05:27:14.456Z,12.83
2022-11-17T05:30:17.932Z,13.70
2022-11-17T05:33:21.268Z,13.93
2022-11-17T05:36:26.461Z,13.50
2022-11-17T05:39:29.744Z,12.97
2022-11-17T05:42:34.118Z,13.07
2022-11-17T05:45:37.461Z,11.30
2022-11-17T05:48:41.090Z,11.20
2022-11-17T05:51:47.426Z,10.15
2022-11-17T05:54:53.239Z,10.43
2022-11-17T05:58:00.363Z,10.10
2022-11-17T06:01:04.979Z,9.95
2022-11-17T06:04:09.024Z,11.10
2022-11-17T06:07:12.610Z,10.18
2022-11-17T06:10:16.022Z,10.30
2022-11-17T06:13:26.007Z,10.10
2022-11-17T06:16:34.269Z,9.77
2022-11-17T06:19:44.250Z,10.65
2022-11-17T06:22:48.840Z,12.40
2022-11-17T06:25:52.607Z,12.87
2022-11-17T06:28:57.284Z,10.57
2022-11-17T06:32:01.394Z,10.27
2022-11-17T06:35:08.294Z,10.60
2022-11-17T06:38:11.611Z,8.23
2022-11-17T06:41:15.041Z,7.10
2022-11-17T06:44:18.477Z,6.20
2022-11-17T06:47:21.819Z,6.13
2022-11-17T06:50:25.603Z,7.35
2022-11-17T06:53:29.240Z,6.32
2022-11-17T06:56:32.798Z,5.90
2022-11-17T06:59:36.203Z,5.70
2022-11-17T07:02:39.679Z,5.90
2022-11-17T07:05:43.145Z,5.22
2022-11-17T07:08:46.915Z,5.00
2022-11-17T07:11:50.352Z,4.17
2022-11-17T07:14:54.070Z,5.07
2022-11-17T07:17:58.698Z,4.13
2022-11-17T07:21:04.240Z,3.92
2022-11-17T07:24:08.887Z,4.80
2022-11-17T07:27:12.966Z,4.67
2022-11-17T07:30:17.323Z,4.83
2022-11-17T07:33:22.180Z,4.28
2022-11-17T07:36:26.045Z,3.50
2022-11-17T07:39:30.048Z,3.72
2022-11-17T07:42:34.679Z,3.37
2022-11-17T07:45:41.168Z,3.17
2022-11-17T07:48:45.835Z,3.53
2022-11-17T07:51:49.724Z,4.03
2022-11-17T07:54:53.499Z,4.40
2022-11-17T07:57:59.110Z,3.60
2022-11-17T08:01:17.073Z,3.93
2022-11-17T08:04:20.489Z,3.78
2022-11-17T08:07:24.102Z,4.55
2022-11-17T08:10:31.359Z,4.10
2022-11-17T08:13:35.664Z,3.53
2022-11-17T08:16:39.230Z,3.87
2022-11-17T08:19:42.710Z,3.13
2022-11-17T08:22:46.725Z,3.30
2022-11-17T08:25:50.434Z,3.13
2022-11-17T08:28:58.428Z,2.67
2022-11-17T08:32:02.370Z,3.23
2022-11-17T08:35:07.171Z,2.67
2022-11-17T08:38:15.520Z,3.28
2022-11-17T08:41:20.216Z,4.00
2022-11-17T08:44:23.879Z,4.60
2022-11-17T08:47:27.478Z,4.30
2022-11-17T08:50:31.110Z,4.10
2022-11-17T08:53:35.341Z,5.47
2022-11-17T08:56:38.753Z,6.32
2022-11-17T08:59:42.251Z,5.67
2022-11-17T09:02:46.278Z,4.50
2022-11-17T09:05:50.200Z,4.65
2022-11-17T09:08:55.527Z,3.88
2022-11-17T09:12:00.497Z,3.90
2022-11-17T09:15:05.546Z,3.70
2022-11-17T09:18:09.185Z,3.57
2022-11-17T09:21:15.632Z,2.60
2022-11-17T09:24:19.311Z,2.97
2022-11-17T09:27:22.844Z,2.50
2022-11-17T09:30:26.929Z,2.47
2022-11-17T09:33:30.789Z,2.40
2022-11-17T09:36:34.246Z,2.42
2022-11-17T09:39:37.704Z,2.30
2022-11-17T09:42:41.366Z,2.50
2022-11-17T09:45:47.037Z,2.30
2022-11-17T09:49:01.774Z,1.70
2022-11-17T09:52:13.402Z,1.88
2022-11-17T09:55:41.369Z,1.95
2022-11-17T09:58:53.853Z,1.92
2022-11-17T10:01:57.979Z,2.47
2022-11-17T10:05:02.160Z,2.00
2022-11-17T10:08:15.146Z,2.40
2022-11-17T10:11:33.985Z,2.20
2022-11-17T10:14:39.873Z,2.50
2022-11-17T10:17:43.227Z,2.47
2022-11-17T10:20:47.286Z,2.73
2022-11-17T10:23:59.340Z,2.20
2022-11-17T10:27:15.508Z,2.67
2022-11-17T10:30:23.852Z,2.78
2022-11-17T10:33:48.256Z,2.50
2022-11-17T10:36:51.768Z,2.17
2022-11-17T10:40:25.884Z,2.00
2022-11-17T10:43:37.324Z,2.28
2022-11-17T10:47:01.998Z,2.22
2022-11-17T10:50:30.740Z,2.47
2022-11-17T10:54:10.693Z,3.17
2022-11-17T10:57:32.587Z,2.47
2022-11-17T11:00:40.133Z,3.08
2022-11-17T11:03:52.694Z,2.60
2022-11-17T11:07:22.798Z,2.20
2022-11-17T11:10:44.890Z,2.80
2022-11-17T11:14:19.521Z,2.28
2022-11-17T11:17:34.767Z,1.95
2022-11-17T11:21:09.172Z,2.35
2022-11-17T11:24:27.651Z,2.40
2022-11-17T11:27:49.159Z,2.00
2022-11-17T11:31:24.561Z,1.98
2022-11-17T11:35:06.341Z,2.95
2022-11-17T11:38:44.190Z,2.45
2022-11-17T11:42:14.893Z,1.70
2022-11-17T11:45:33.942Z,1.53
2022-11-17T11:48:42.553Z,1.73
2022-11-17T11:51:50.452Z,3.90
2022-11-17T11:55:02.161Z,5.57
2022-11-17T11:58:14.810Z,3.80
2022-11-17T12:01:20.693Z,2.00
2022-11-17T12:04:39.055Z,5.13
2022-11-17T12:08:20.891Z,2.78
2022-11-17T12:11:43.368Z,2.78
2022-11-17T12:15:10.353Z,3.03
2022-11-17T12:18:20.153Z,1.80
2022-11-17T12:21:28.996Z,1.83
2022-11-17T12:24:41.858Z,1.63
2022-11-17T12:27:53.475Z,1.60
2022-11-17T12:31:09.466Z,1.80
2022-11-17T12:34:33.817Z,2.03
2022-11-17T12:37:39.146Z,1.97
2022-11-17T12:40:47.655Z,2.13
2022-11-17T12:43:54.073Z,2.30
2022-11-17T12:47:25.539Z,1.90
2022-11-17T12:50:40.268Z,1.65
2022-11-17T12:54:15.918Z,1.60
2022-11-17T12:57:29.107Z,1.40
2022-11-17T13:00:42.918Z,2.53
2022-11-17T13:04:01.508Z,2.00
2022-11-17T13:07:08.480Z,2.85
2022-11-17T13:10:30.160Z,1.73
2022-11-17T13:13:37.045Z,1.77
2022-11-17T13:16:49.542Z,2.83
2022-11-17T13:20:01.582Z,2.55
2022-11-17T13:23:14.376Z,2.05
2022-11-17T13:26:22.755Z,1.90
2022-11-17T13:29:26.815Z,1.80
2022-11-17T13:32:33.948Z,1.48
2022-11-17T13:35:41.981Z,2.95
2022-11-17T13:38:51.079Z,3.42
2022-11-17T13:41:58.744Z,4.70
2022-11-17T13:45:06.864Z,4.20
2022-11-17T13:48:40.332Z,4.10
2022-11-17T13:51:47.673Z,3.70
2022-11-17T13:54:57.086Z,2.60
2022-11-17T13:58:26.251Z,5.43
2022-11-17T14:01:33.289Z,1.80
2022-11-17T14:04:36.992Z,1.52
2022-11-17T14:07:41.798Z,1.90
2022-11-17T14:10:46.232Z,3.13
2022-11-17T14:14:01.292Z,3.50
2022-11-17T14:17:20.414Z,3.03
2022-11-17T14:20:31.067Z,2.25
2022-11-17T14:23:35.168Z,2.40
2022-11-17T14:26:44.806Z,2.10
2022-11-17T14:29:48.536Z,2.57
2022-11-17T14:32:52.817Z,3.30
2022-11-17T14:36:00.737Z,3.00
2022-11-17T14:39:15.918Z,5.32
2022-11-17T14:42:20.217Z,3.40
2022-11-17T14:45:23.761Z,2.40
2022-11-17T14:48:27.210Z,2.37
2022-11-17T14:51:31.128Z,2.20
2022-11-17T14:54:34.673Z,4.88
2022-11-17T14:57:38.383Z,4.00
2022-11-17T15:00:42.205Z,4.03
2022-11-17T15:03:46.715Z,4.30
2022-11-17T15:06:50.566Z,3.60
2022-11-17T15:09:55.162Z,2.25
2022-11-17T15:13:01.424Z,4.68
2022-11-17T15:16:07.921Z,6.23
2022-11-17T15:19:14.629Z,6.53
2022-11-17T15:22:18.414Z,4.28
2022-11-17T15:25:21.861Z,3.70
2022-11-17T15:28:29.094Z,2.70
2022-11-17T15:31:34.034Z,3.40
2022-11-17T15:34:37.541Z,4.50
2022-11-17T15:37:41.129Z,5.63
2022-11-17T15:40:44.804Z,5.18
2022-11-17T15:43:48.288Z,3.10
2022-11-17T15:46:51.766Z,2.47
2022-11-17T15:49:58.610Z,3.03
2022-11-17T15:53:04.744Z,3.03
2022-11-17T15:56:16.749Z,4.28
2022-11-17T15:59:20.422Z,4.60
2022-11-17T16:02:24.183Z,4.20
2022-11-17T16:05:27.684Z,3.43
2022-11-17T16:08:32.410Z,2.70
2022-11-17T16:11:36.913Z,2.50
2022-11-17T16:14:40.343Z,3.50
2022-11-17T16:17:43.762Z,4.73
2022-11-17T16:20:47.265Z,4.63
2022-11-17T16:23:54.714Z,4.35
2022-11-17T16:26:58.114Z,4.20
2022-11-17T16:30:01.602Z,5.50
2022-11-17T16:33:11.684Z,4.53
2022-11-17T16:36:15.566Z,4.07
2022-11-17T16:39:19.972Z,2.53
2022-11-17T16:42:23.537Z,2.70
2022-11-17T16:45:27.052Z,2.55
2022-11-17T16:48:34.387Z,2.33
2022-11-17T16:51:38.182Z,3.07
2022-11-17T16:54:42.919Z,3.60
2022-11-17T16:57:47.559Z,2.90
2022-11-17T17:00:50.981Z,2.70
2022-11-17T17:04:02.081Z,2.77
2022-11-17T17:07:06.058Z,3.27
2022-11-17T17:10:09.862Z,4.38
2022-11-17T17:13:13.383Z,3.35
2022-11-17T17:16:18.887Z,3.63
2022-11-17T17:19:23.419Z,4.37
2022-11-17T17:22:27.088Z,3.77
2022-11-17T17:25:30.661Z,4.30
2022-11-17T17:28:35.976Z,3.30
2022-11-17T17:31:41.308Z,2.85
2022-11-17T17:34:44.872Z,3.53
2022-11-17T17:37:48.290Z,4.40
2022-11-17T17:40:51.715Z,4.82
2022-11-17T17:44:00.370Z,5.22
2022-11-17T17:47:04.115Z,5.18
2022-11-17T17:50:08.101Z,6.00
2022-11-17T17:53:11.574Z,5.20
2022-11-17T17:56:16.250Z,3.95
2022-11-17T17:59:20.351Z,6.20
2022-11-17T18:02:24.005Z,4.40
2022-11-17T18:05:28.434Z,4.50
2022-11-17T18:08:35.674Z,4.93
2022-11-17T18:11:45.933Z,3.67
2022-11-17T18:14:50.673Z,2.90
2022-11-17T18:17:54.315Z,2.90
2022-11-17T18:21:10.043Z,3.17
2022-11-17T18:24:14.058Z,3.00
2022-11-17T18:27:17.434Z,2.65
2022-11-17T18:30:21.297Z,3.05
2022-11-17T18:33:24.923Z,3.72
2022-11-17T18:36:29.591Z,4.10
2022-11-17T18:39:33.605Z,4.27
2022-11-17T18:42:37.184Z,4.35
2022-11-17T18:45:40.776Z,4.55
2022-11-17T18:48:46.763Z,4.90
2022-11-17T18:51:50.658Z,4.13
2022-11-17T18:54:54.243Z,5.20
2022-11-17T18:57:58.069Z,4.78
2022-11-17T19:01:09.042Z,4.88
2022-11-17T19:04:14.339Z,5.50
2022-11-17T19:07:18.001Z,4.23
2022-11-17T19:10:21.708Z,3.40
2022-11-17T19:13:26.336Z,3.30
2022-11-17T19:16:30.333Z,3.47
2022-11-17T19:19:33.652Z,3.83
2022-11-17T19:22:37.305Z,4.37
2022-11-17T19:25:42.435Z,4.67
2022-11-17T19:28:46.713Z,4.43
2022-11-17T19:31:52.509Z,3.30
2022-11-17T19:35:03.584Z,4.00
2022-11-17T19:38:14.559Z,3.80
2022-11-17T19:41:21.040Z,4.40
2022-11-17T19:44:24.746Z,4.07
2022-11-17T19:47:28.176Z,3.92
2022-11-17T19:50:33.797Z,4.40
2022-11-17T19:53:37.192Z,3.90
2022-11-17T19:56:40.864Z,3.67
2022-11-17T19:59:44.518Z,3.38
2022-11-17T20:02:48.257Z,4.18
2022-11-17T20:05:51.882Z,4.13
2022-11-17T20:08:57.537Z,4.23
2022-11-17T20:12:01.136Z,5.27
2022-11-17T20:15:06.208Z,4.70
2022-11-17T20:18:09.874Z,4.95
2022-11-17T20:21:14.141Z,5.22
2022-11-17T20:24:17.847Z,5.20
2022-11-17T20:27:21.554Z,4.60
2022-11-17T20:30:26.382Z,5.32
2022-11-17T20:33:30.606Z,5.45
2022-11-17T20:36:35.632Z,7.00
2022-11-17T20:39:39.523Z,5.97
2022-11-17T20:42:43.209Z,5.87
2022-11-17T20:45:50.307Z,5.18
2022-11-17T20:48:54.044Z,5.82
2022-11-17T20:51:57.620Z,6.68
2022-11-17T20:55:01.119Z,5.77
2022-11-17T20:58:04.826Z,5.37
2022-11-17T21:01:17.175Z,6.32
2022-11-17T21:04:21.127Z,5.88
2022-11-17T21:07:24.907Z,7.00
2022-11-17T21:10:28.602Z,6.37
2022-11-17T21:13:34.204Z,5.23
2022-11-17T21:16:40.121Z,4.93
2022-11-17T21:19:44.266Z,4.63
2022-11-17T21:22:47.647Z,5.10
2022-11-17T21:25:51.051Z,4.57
2022-11-17T21:28:54.587Z,4.90
2022-11-17T21:31:58.016Z,5.45
2022-11-17T21:35:01.489Z,5.30
2022-11-17T21:38:04.895Z,4.63
2022-11-17T21:41:13.086Z,3.90
2022-11-17T21:44:16.950Z,4.30
2022-11-17T21:47:21.677Z,4.30
2022-11-17T21:50:25.104Z,3.65
2022-11-17T21:53:29.939Z,4.25
2022-11-17T21:56:33.960Z,5.20
2022-11-17T21:59:37.418Z,5.50
2022-11-17T22:02:40.775Z,5.00
2022-11-17T22:05:44.126Z,5.18
2022-11-17T22:08:48.050Z,5.50
2022-11-17T22:11:52.086Z,4.93
2022-11-17T22:14:55.451Z,5.23
2022-11-17T22:17:58.923Z,4.28
2022-11-17T22:21:02.813Z,5.20
2022-11-17T22:24:07.810Z,5.20
2022-11-17T22:27:11.226Z,4.20
2022-11-17T22:30:15.014Z,4.40
2022-11-17T22:33:18.937Z,4.40
2022-11-17T22:36:22.371Z,4.93
2022-11-17T22:39:25.767Z,4.78
2022-11-17T22:42:29.179Z,4.83
2022-11-17T22:45:37.011Z,5.03
2022-11-17T22:48:40.341Z,6.47
2022-11-17T22:52:02.071Z,5.90
2022-11-17T22:55:05.909Z,6.13
2022-11-17T22:58:09.444Z,5.83
2022-11-17T23:01:13.074Z,6.13
2022-11-17T23:04:16.635Z,5.13
2022-11-17T23:07:20.015Z,4.53
2022-11-17T23:10:23.432Z,5.53
2022-11-17T23:13:26.827Z,5.50
2022-11-17T23:16:30.834Z,4.60
2022-11-17T23:19:34.486Z,3.95
2022-11-17T23:22:38.074Z,6.07
2022-11-17T23:25:41.570Z,4.32
2022-11-17T23:28:44.869Z,5.60
2022-11-17T23:31:48.172Z,4.03
2022-11-17T23:34:51.606Z,4.05
2022-11-17T23:37:54.995Z,4.72
2022-11-17T23:41:02.775Z,4.43
2022-11-17T23:44:06.256Z,4.43
2022-11-17T23:47:09.610Z,4.80
2022-11-17T23:50:13.025Z,3.88
2022-11-17T23:53:16.649Z,4.18
2022-11-17T23:56:20.751Z,4.35
2022-11-17T23:59:24.181Z,4.10
